sensor_id;sensor_type;location;lat;lon;timestamp;pressure;altitude;pressure_sealevel;temperature;humidity
1726;BME280;41776;48.260;8.928;2022-09-12T00:01:39;71820.28;;;-145.69;100.00
1726;BME280;41776;48.260;8.928;2022-09-12T00:04:06;71812.31;;;-145.69;100.00
1726;BME280;41776;48.260;8.928;2022-09-12T00:06:34;71816.31;;;-145.69;100.00
1726;BME280;41776;48.260;8.928;2022-09-12T00:09:04;71808.34;;;-145.69;100.00
1726;BME280;41776;48.260;8.928;2022-09-12T00:11:34;71800.38;;;-145.69;100.00
1726;BME280;41776;48.260;8.928;2022-09-12T00:14:01;71804.38;;;-145.69;100.00
1726;BME280;41776;48.260;8.928;2022-09-12T00:16:29;71816.31;;;-145.69;100.00
1726;BME280;41776;48.260;8.928;2022-09-12T00:18:56;71824.25;;;-145.69;100.00
1726;BME280;41776;48.260;8.928;2022-09-12T00:21:23;71832.22;;;-145.69;100.00
1726;BME280;41776;48.260;8.928;2022-09-12T00:23:50;71836.22;;;-145.69;100.00
1726;BME280;41776;48.260;8.928;2022-09-12T00:26:19;71834.22;;;-145.69;100.00
1726;BME280;41776;48.260;8.928;2022-09-12T00:28:47;71834.22;;;-145.69;100.00
1726;BME280;41776;48.260;8.928;2022-09-12T00:31:15;71816.31;;;-145.69;100.00
1726;BME280;41776;48.260;8.928;2022-09-12T00:33:45;71820.28;;;-145.69;100.00
1726;BME280;41776;48.260;8.928;2022-09-12T00:36:13;71830.25;;;-145.69;100.00
1726;BME280;41776;48.260;8.928;2022-09-12T00:38:40;71838.19;;;-145.69;100.00
1726;BME280;41776;48.260;8.928;2022-09-12T00:41:12;71832.22;;;-145.69;100.00
1726;BME280;41776;48.260;8.928;2022-09-12T00:43:44;71834.22;;;-145.69;100.00
1726;BME280;41776;48.260;8.928;2022-09-12T00:46:25;71844.16;;;-145.69;100.00
1726;BME280;41776;48.260;8.928;2022-09-12T00:48:56;71842.19;;;-145.69;100.00
1726;BME280;41776;48.260;8.928;2022-09-12T00:51:24;71826.25;;;-145.69;100.00
1726;BME280;41776;48.260;8.928;2022-09-12T00:53:52;71824.25;;;-145.69;100.00
1726;BME280;41776;48.260;8.928;2022-09-12T00:56:21;71810.34;;;-145.69;100.00
1726;BME280;41776;48.260;8.928;2022-09-12T00:58:53;71820.28;;;-145.69;100.00
1726;BME280;41776;48.260;8.928;2022-09-12T01:01:20;71814.31;;;-145.69;100.00
1726;BME280;41776;48.260;8.928;2022-09-12T01:03:47;71840.19;;;-145.69;100.00
1726;BME280;41776;48.260;8.928;2022-09-12T01:06:15;71836.22;;;-145.69;100.00
1726;BME280;41776;48.260;8.928;2022-09-12T01:08:45;71852.13;;;-145.69;100.00
1726;BME280;41776;48.260;8.928;2022-09-12T01:11:13;71832.22;;;-145.69;100.00
1726;BME280;41776;48.260;8.928;2022-09-12T01:13:42;71830.25;;;-145.69;100.00
1726;BME280;41776;48.260;8.928;2022-09-12T01:16:11;71820.28;;;-145.69;100.00
1726;BME280;41776;48.260;8.928;2022-09-12T01:18:45;71816.31;;;-145.69;100.00
1726;BME280;41776;48.260;8.928;2022-09-12T01:21:19;71812.31;;;-145.69;100.00
1726;BME280;41776;48.260;8.928;2022-09-12T01:27:03;71826.25;;;-145.69;100.00
1726;BME280;41776;48.260;8.928;2022-09-12T01:30:02;71830.25;;;-145.69;100.00
1726;BME280;41776;48.260;8.928;2022-09-12T01:32:43;71828.25;;;-145.69;100.00
1726;BME280;41776;48.260;8.928;2022-09-12T01:35:19;71822.28;;;-145.69;100.00
1726;BME280;41776;48.260;8.928;2022-09-12T01:37:54;71818.31;;;-145.69;100.00
1726;BME280;41776;48.260;8.928;2022-09-12T01:40:30;71816.31;;;-145.69;100.00
1726;BME280;41776;48.260;8.928;2022-09-12T01:43:03;71834.22;;;-145.69;100.00
1726;BME280;41776;48.260;8.928;2022-09-12T01:45:39;71844.16;;;-145.69;100.00
1726;BME280;41776;48.260;8.928;2022-09-12T01:48:14;71864.06;;;-145.69;100.00
1726;BME280;41776;48.260;8.928;2022-09-12T01:50:46;71870.03;;;-145.69;100.00
1726;BME280;41776;48.260;8.928;2022-09-12T01:53:19;71848.16;;;-145.69;100.00
1726;BME280;41776;48.260;8.928;2022-09-12T01:55:50;71832.22;;;-145.69;100.00
1726;BME280;41776;48.260;8.928;2022-09-12T01:58:21;71830.25;;;-145.69;100.00
1726;BME280;41776;48.260;8.928;2022-09-12T02:00:52;71826.25;;;-145.69;100.00
1726;BME280;41776;48.260;8.928;2022-09-12T02:03:26;71820.28;;;-145.69;100.00
1726;BME280;41776;48.260;8.928;2022-09-12T02:05:57;71810.34;;;-145.69;100.00
1726;BME280;41776;48.260;8.928;2022-09-12T02:08:27;71810.34;;;-145.69;100.00
1726;BME280;41776;48.260;8.928;2022-09-12T02:10:59;71808.34;;;-145.69;100.00
1726;BME280;41776;48.260;8.928;2022-09-12T02:13:31;71816.31;;;-145.69;100.00
1726;BME280;41776;48.260;8.928;2022-09-12T02:16:06;71810.34;;;-145.69;100.00
1726;BME280;41776;48.260;8.928;2022-09-12T02:18:37;71804.38;;;-145.69;100.00
1726;BME280;41776;48.260;8.928;2022-09-12T02:21:06;71802.38;;;-145.69;100.00
1726;BME280;41776;48.260;8.928;2022-09-12T02:23:36;71812.31;;;-145.69;100.00
1726;BME280;41776;48.260;8.928;2022-09-12T02:26:09;71816.31;;;-145.69;100.00
1726;BME280;41776;48.260;8.928;2022-09-12T02:28:40;71806.34;;;-145.69;100.00
1726;BME280;41776;48.260;8.928;2022-09-12T02:31:12;71824.25;;;-145.69;100.00
1726;BME280;41776;48.260;8.928;2022-09-12T02:33:47;71834.22;;;-145.69;100.00
1726;BME280;41776;48.260;8.928;2022-09-12T02:36:17;71854.13;;;-145.69;100.00
1726;BME280;41776;48.260;8.928;2022-09-12T02:38:52;71848.16;;;-145.69;100.00
1726;BME280;41776;48.260;8.928;2022-09-12T02:41:20;71858.09;;;-145.69;100.00
1726;BME280;41776;48.260;8.928;2022-09-12T02:43:49;71854.13;;;-145.69;100.00
1726;BME280;41776;48.260;8.928;2022-09-12T02:46:20;71852.13;;;-145.69;100.00
1726;BME280;41776;48.260;8.928;2022-09-12T02:48:48;71844.16;;;-145.69;100.00
1726;BME280;41776;48.260;8.928;2022-09-12T02:51:15;71836.22;;;-145.69;100.00
1726;BME280;41776;48.260;8.928;2022-09-12T02:53:42;71834.22;;;-145.69;100.00
1726;BME280;41776;48.260;8.928;2022-09-12T02:56:23;71846.16;;;-145.69;100.00
1726;BME280;41776;48.260;8.928;2022-09-12T02:58:50;71832.22;;;-145.69;100.00
1726;BME280;41776;48.260;8.928;2022-09-12T03:01:28;71832.22;;;-145.69;100.00
1726;BME280;41776;48.260;8.928;2022-09-12T03:04:12;71824.25;;;-145.69;100.00
1726;BME280;41776;48.260;8.928;2022-09-12T03:06:50;71806.34;;;-145.69;100.00
1726;BME280;41776;48.260;8.928;2022-09-12T03:09:28;71798.41;;;-145.69;100.00
1726;BME280;41776;48.260;8.928;2022-09-12T03:12:10;71784.47;;;-145.69;100.00
1726;BME280;41776;48.260;8.928;2022-09-12T03:14:51;71802.38;;;-145.69;100.00
1726;BME280;41776;48.260;8.928;2022-09-12T03:17:30;71816.31;;;-145.69;100.00
1726;BME280;41776;48.260;8.928;2022-09-12T03:20:08;71820.28;;;-145.69;100.00
1726;BME280;41776;48.260;8.928;2022-09-12T03:22:48;71854.13;;;-145.69;100.00
1726;BME280;41776;48.260;8.928;2022-09-12T03:25:23;71850.13;;;-145.69;100.00
1726;BME280;41776;48.260;8.928;2022-09-12T03:27:55;71828.25;;;-145.69;100.00
1726;BME280;41776;48.260;8.928;2022-09-12T03:30:26;71810.34;;;-145.69;100.00
1726;BME280;41776;48.260;8.928;2022-09-12T03:32:53;71790.44;;;-145.69;100.00
1726;BME280;41776;48.260;8.928;2022-09-12T03:35:22;71800.38;;;-145.69;100.00
1726;BME280;41776;48.260;8.928;2022-09-12T03:37:51;71802.38;;;-145.69;100.00
1726;BME280;41776;48.260;8.928;2022-09-12T03:40:18;71808.34;;;-145.69;100.00
1726;BME280;41776;48.260;8.928;2022-09-12T03:42:47;71808.34;;;-145.69;100.00
1726;BME280;41776;48.260;8.928;2022-09-12T03:45:13;71820.28;;;-145.69;100.00
1726;BME280;41776;48.260;8.928;2022-09-12T03:47:40;71822.28;;;-145.69;100.00
1726;BME280;41776;48.260;8.928;2022-09-12T03:50:07;71800.38;;;-145.69;100.00
1726;BME280;41776;48.260;8.928;2022-09-12T03:52:35;71820.28;;;-145.69;100.00
1726;BME280;41776;48.260;8.928;2022-09-12T03:55:02;71848.16;;;-145.69;100.00
1726;BME280;41776;48.260;8.928;2022-09-12T03:57:29;71838.19;;;-145.69;100.00
1726;BME280;41776;48.260;8.928;2022-09-12T03:59:55;71844.16;;;-145.69;100.00
1726;BME280;41776;48.260;8.928;2022-09-12T04:02:22;71854.13;;;-145.69;100.00
1726;BME280;41776;48.260;8.928;2022-09-12T04:04:49;71883.97;;;-145.69;100.00
1726;BME280;41776;48.260;8.928;2022-09-12T04:07:16;71889.94;;;-145.69;100.00
1726;BME280;41776;48.260;8.928;2022-09-12T04:09:43;71905.88;;;-145.69;100.00
1726;BME280;41776;48.260;8.928;2022-09-12T04:12:10;71907.84;;;-145.69;100.00
1726;BME280;41776;48.260;8.928;2022-09-12T04:14:38;71862.06;;;-145.69;100.00
1726;BME280;41776;48.260;8.928;2022-09-12T04:17:04;71860.09;;;-145.69;100.00
1726;BME280;41776;48.260;8.928;2022-09-12T04:19:33;71844.16;;;-145.69;100.00
1726;BME280;41776;48.260;8.928;2022-09-12T04:21:59;71852.13;;;-145.69;100.00
1726;BME280;41776;48.260;8.928;2022-09-12T04:24:26;71864.06;;;-145.69;100.00
1726;BME280;41776;48.260;8.928;2022-09-12T04:26:53;71858.09;;;-145.69;100.00
1726;BME280;41776;48.260;8.928;2022-09-12T04:29:20;71870.03;;;-145.69;100.00
1726;BME280;41776;48.260;8.928;2022-09-12T04:31:47;71866.06;;;-145.69;100.00
1726;BME280;41776;48.260;8.928;2022-09-12T04:34:13;71856.09;;;-145.69;100.00
1726;BME280;41776;48.260;8.928;2022-09-12T04:36:41;71832.22;;;-145.69;100.00
1726;BME280;41776;48.260;8.928;2022-09-12T04:39:07;71812.31;;;-145.69;100.00
1726;BME280;41776;48.260;8.928;2022-09-12T04:41:35;71800.38;;;-145.69;100.00
1726;BME280;41776;48.260;8.928;2022-09-12T04:44:05;71804.38;;;-145.69;100.00
1726;BME280;41776;48.260;8.928;2022-09-12T04:46:34;71808.34;;;-145.69;100.00
1726;BME280;41776;48.260;8.928;2022-09-12T04:49:01;71824.25;;;-145.69;100.00
1726;BME280;41776;48.260;8.928;2022-09-12T04:51:29;71834.22;;;-145.69;100.00
1726;BME280;41776;48.260;8.928;2022-09-12T04:53:57;71854.13;;;-145.69;100.00
1726;BME280;41776;48.260;8.928;2022-09-12T04:56:24;71840.19;;;-145.69;100.00
1726;BME280;41776;48.260;8.928;2022-09-12T04:58:50;71830.25;;;-145.69;100.00
1726;BME280;41776;48.260;8.928;2022-09-12T05:01:20;71830.25;;;-145.69;100.00
1726;BME280;41776;48.260;8.928;2022-09-12T05:03:48;71858.09;;;-145.69;100.00
1726;BME280;41776;48.260;8.928;2022-09-12T05:06:17;71874.03;;;-145.69;100.00
1726;BME280;41776;48.260;8.928;2022-09-12T05:08:44;71901.88;;;-145.69;100.00
1726;BME280;41776;48.260;8.928;2022-09-12T05:11:13;71911.84;;;-145.69;100.00
1726;BME280;41776;48.260;8.928;2022-09-12T05:13:39;71899.88;;;-145.69;100.00
1726;BME280;41776;48.260;8.928;2022-09-12T05:16:07;71907.84;;;-145.69;100.00
1726;BME280;41776;48.260;8.928;2022-09-12T05:18:36;71915.81;;;-145.69;100.00
1726;BME280;41776;48.260;8.928;2022-09-12T05:21:04;71905.88;;;-145.69;100.00
1726;BME280;41776;48.260;8.928;2022-09-12T05:23:31;71883.97;;;-145.69;100.00
1726;BME280;41776;48.260;8.928;2022-09-12T05:25:58;71876.00;;;-145.69;100.00
1726;BME280;41776;48.260;8.928;2022-09-12T05:28:29;71880.00;;;-145.69;100.00
1726;BME280;41776;48.260;8.928;2022-09-12T05:31:00;71880.00;;;-145.69;100.00
1726;BME280;41776;48.260;8.928;2022-09-12T05:33:27;71860.09;;;-145.69;100.00
1726;BME280;41776;48.260;8.928;2022-09-12T05:35:55;71870.03;;;-145.69;100.00
1726;BME280;41776;48.260;8.928;2022-09-12T05:38:21;71874.03;;;-145.69;100.00
1726;BME280;41776;48.260;8.928;2022-09-12T05:40:49;71878.00;;;-145.69;100.00
1726;BME280;41776;48.260;8.928;2022-09-12T05:43:15;71876.00;;;-145.69;100.00
1726;BME280;41776;48.260;8.928;2022-09-12T05:45:42;71881.97;;;-145.69;100.00
1726;BME280;41776;48.260;8.928;2022-09-12T05:48:08;71878.00;;;-145.69;100.00
1726;BME280;41776;48.260;8.928;2022-09-12T05:50:35;71872.03;;;-145.69;100.00
1726;BME280;41776;48.260;8.928;2022-09-12T05:53:02;71852.13;;;-145.69;100.00
1726;BME280;41776;48.260;8.928;2022-09-12T05:55:29;71840.19;;;-145.69;100.00
1726;BME280;41776;48.260;8.928;2022-09-12T05:57:57;71806.34;;;-145.69;100.00
1726;BME280;41776;48.260;8.928;2022-09-12T06:00:23;71800.38;;;-145.69;100.00
1726;BME280;41776;48.260;8.928;2022-09-12T06:02:51;71786.47;;;-145.69;100.00
1726;BME280;41776;48.260;8.928;2022-09-12T06:05:18;71788.44;;;-145.69;100.00
1726;BME280;41776;48.260;8.928;2022-09-12T06:07:45;71782.47;;;-145.69;100.00
1726;BME280;41776;48.260;8.928;2022-09-12T06:10:13;71772.53;;;-145.69;100.00
1726;BME280;41776;48.260;8.928;2022-09-12T06:12:40;71764.56;;;-145.69;100.00
1726;BME280;41776;48.260;8.928;2022-09-12T06:15:08;71744.66;;;-145.69;100.00
1726;BME280;41776;48.260;8.928;2022-09-12T06:17:35;71734.72;;;-145.69;100.00
1726;BME280;41776;48.260;8.928;2022-09-12T06:20:02;71730.72;;;-145.69;100.00
1726;BME280;41776;48.260;8.928;2022-09-12T06:22:29;71714.81;;;-145.69;100.00
1726;BME280;41776;48.260;8.928;2022-09-12T06:24:55;71708.84;;;-145.69;100.00
1726;BME280;41776;48.260;8.928;2022-09-12T06:27:23;71704.88;;;-145.69;100.00
1726;BME280;41776;48.260;8.928;2022-09-12T06:29:50;71706.84;;;-145.69;100.00
1726;BME280;41776;48.260;8.928;2022-09-12T06:32:16;71708.84;;;-145.69;100.00
1726;BME280;41776;48.260;8.928;2022-09-12T06:34:43;71692.94;;;-145.69;100.00
1726;BME280;41776;48.260;8.928;2022-09-12T06:37:12;71690.94;;;-145.69;100.00
1726;BME280;41776;48.260;8.928;2022-09-12T06:39:39;71677.00;;;-145.69;100.00
1726;BME280;41776;48.260;8.928;2022-09-12T06:42:05;71669.03;;;-145.69;100.00
1726;BME280;41776;48.260;8.928;2022-09-12T06:44:33;71653.13;;;-145.69;100.00
1726;BME280;41776;48.260;8.928;2022-09-12T06:47:00;71643.19;;;-145.69;100.00
1726;BME280;41776;48.260;8.928;2022-09-12T06:49:26;71629.25;;;-145.69;100.00
1726;BME280;41776;48.260;8.928;2022-09-12T06:51:53;71609.34;;;-145.69;100.00
1726;BME280;41776;48.260;8.928;2022-09-12T06:54:19;71593.44;;;-145.69;100.00
1726;BME280;41776;48.260;8.928;2022-09-12T06:56:45;71577.50;;;-145.69;100.00
1726;BME280;41776;48.260;8.928;2022-09-12T06:59:12;71533.72;;;-145.69;100.00
1726;BME280;41776;48.260;8.928;2022-09-12T07:01:40;71527.75;;;-145.69;100.00
1726;BME280;41776;48.260;8.928;2022-09-12T07:04:06;71505.88;;;-145.69;100.00
1726;BME280;41776;48.260;8.928;2022-09-12T07:06:35;71487.97;;;-145.69;100.00
1726;BME280;41776;48.260;8.928;2022-09-12T07:09:04;71470.06;;;-145.69;100.00
1726;BME280;41776;48.260;8.928;2022-09-12T07:11:32;71458.09;;;-145.69;100.00
1726;BME280;41776;48.260;8.928;2022-09-12T07:14:00;71444.19;;;-145.69;100.00
1726;BME280;41776;48.260;8.928;2022-09-12T07:16:27;71424.28;;;-145.69;100.00
1726;BME280;41776;48.260;8.928;2022-09-12T07:18:56;71414.34;;;-145.69;100.00
1726;BME280;41776;48.260;8.928;2022-09-12T07:21:23;71398.41;;;-145.69;100.00
1726;BME280;41776;48.260;8.928;2022-09-12T07:23:50;71360.59;;;-145.69;100.00
1726;BME280;41776;48.260;8.928;2022-09-12T07:26:17;71352.66;;;-145.69;100.00
1726;BME280;41776;48.260;8.928;2022-09-12T07:28:43;71332.75;;;-145.69;100.00
1726;BME280;41776;48.260;8.928;2022-09-12T07:31:11;71310.84;;;-145.69;100.00
1726;BME280;41776;48.260;8.928;2022-09-12T07:33:39;71302.91;;;-145.69;100.00
1726;BME280;41776;48.260;8.928;2022-09-12T07:36:09;71290.97;;;-145.69;100.00
1726;BME280;41776;48.260;8.928;2022-09-12T07:38:37;71273.06;;;-145.69;100.00
1726;BME280;41776;48.260;8.928;2022-09-12T07:41:09;71253.16;;;-145.69;100.00
1726;BME280;41776;48.260;8.928;2022-09-12T07:43:36;71223.31;;;-145.69;100.00
1726;BME280;41776;48.260;8.928;2022-09-12T07:46:02;71199.44;;;-145.69;100.00
1726;BME280;41776;48.260;8.928;2022-09-12T07:48:29;71175.56;;;-145.69;100.00
1726;BME280;41776;48.260;8.928;2022-09-12T07:50:58;71131.78;;;-145.69;100.00
1726;BME280;41776;48.260;8.928;2022-09-12T07:53:30;71115.88;;;-145.69;100.00
1726;BME280;41776;48.260;8.928;2022-09-12T07:55:57;71115.88;;;-145.69;100.00
1726;BME280;41776;48.260;8.928;2022-09-12T07:58:24;71097.97;;;-145.69;100.00
1726;BME280;41776;48.260;8.928;2022-09-12T08:00:50;71086.03;;;-145.69;100.00
1726;BME280;41776;48.260;8.928;2022-09-12T08:03:17;71056.16;;;-145.69;100.00
1726;BME280;41776;48.260;8.928;2022-09-12T08:05:43;71020.34;;;-145.69;100.00
1726;BME280;41776;48.260;8.928;2022-09-12T08:08:10;71018.38;;;-145.69;94.00
1726;BME280;41776;48.260;8.928;2022-09-12T08:10:38;71006.44;;;-145.69;100.00
1726;BME280;41776;48.260;8.928;2022-09-12T08:13:04;70984.53;;;-145.69;93.50
1726;BME280;41776;48.260;8.928;2022-09-12T08:15:33;70972.59;;;-145.69;91.69
1726;BME280;41776;48.260;8.928;2022-09-12T08:18:00;70968.63;;;-145.69;87.98
1726;BME280;41776;48.260;8.928;2022-09-12T08:20:26;70960.66;;;-145.69;89.43
1726;BME280;41776;48.260;8.928;2022-09-12T08:22:53;70950.72;;;-145.69;89.08
1726;BME280;41776;48.260;8.928;2022-09-12T08:25:19;70944.75;;;-145.69;95.12
1726;BME280;41776;48.260;8.928;2022-09-12T08:27:47;70924.84;;;-145.69;89.48
1726;BME280;41776;48.260;8.928;2022-09-12T08:30:13;70916.91;;;-145.69;91.46
1726;BME280;41776;48.260;8.928;2022-09-12T08:32:40;70914.91;;;-145.69;88.87
1726;BME280;41776;48.260;8.928;2022-09-12T08:35:07;70897.00;;;-145.69;83.73
1726;BME280;41776;48.260;8.928;2022-09-12T08:37:33;70881.09;;;-145.69;89.85
1726;BME280;41776;48.260;8.928;2022-09-12T08:40:00;70887.06;;;-145.69;87.32
1726;BME280;41776;48.260;8.928;2022-09-12T08:42:39;70877.09;;;-145.69;95.49
1726;BME280;41776;48.260;8.928;2022-09-12T08:45:17;70867.16;;;-145.69;84.35
1726;BME280;41776;48.260;8.928;2022-09-12T08:47:45;70875.13;;;-145.69;82.66
1726;BME280;41776;48.260;8.928;2022-09-12T08:50:15;70867.16;;;-145.69;85.38
1726;BME280;41776;48.260;8.928;2022-09-12T08:52:49;70849.25;;;-145.69;90.41
1726;BME280;41776;48.260;8.928;2022-09-12T08:55:24;70853.22;;;-145.69;84.04
1726;BME280;41776;48.260;8.928;2022-09-12T08:57:52;70849.25;;;-145.69;84.83
1726;BME280;41776;48.260;8.928;2022-09-12T09:00:20;70821.41;;;-145.69;83.44
1726;BME280;41776;48.260;8.928;2022-09-12T09:02:58;70831.34;;;-145.69;75.52
1726;BME280;41776;48.260;8.928;2022-09-12T09:05:45;70829.34;;;-145.69;77.13
1726;BME280;41776;48.260;8.928;2022-09-12T09:08:24;70817.41;;;-145.69;75.51
1726;BME280;41776;48.260;8.928;2022-09-12T09:11:00;70817.41;;;-145.69;75.38
1726;BME280;41776;48.260;8.928;2022-09-12T09:13:38;70793.53;;;-145.69;93.65
1726;BME280;41776;48.260;8.928;2022-09-12T09:16:30;70803.50;;;-145.69;77.66
1726;BME280;41776;48.260;8.928;2022-09-12T09:19:00;70789.56;;;-145.69;82.60
1726;BME280;41776;48.260;8.928;2022-09-12T09:21:31;70785.59;;;-145.69;72.04
1726;BME280;41776;48.260;8.928;2022-09-12T09:24:03;70785.59;;;-145.69;75.18
1726;BME280;41776;48.260;8.928;2022-09-12T09:26:38;70783.59;;;-145.69;79.86
1726;BME280;41776;48.260;8.928;2022-09-12T09:29:13;70789.56;;;-145.69;74.73
1726;BME280;41776;48.260;8.928;2022-09-12T09:31:45;70783.59;;;-145.69;74.43
1726;BME280;41776;48.260;8.928;2022-09-12T09:34:17;70769.66;;;-145.69;79.26
1726;BME280;41776;48.260;8.928;2022-09-12T09:36:49;70769.66;;;-145.69;75.12
1726;BME280;41776;48.260;8.928;2022-09-12T09:39:33;70755.75;;;-145.69;76.80
1726;BME280;41776;48.260;8.928;2022-09-12T09:42:12;70749.78;;;-145.69;73.28
1726;BME280;41776;48.260;8.928;2022-09-12T09:44:41;70737.84;;;-145.69;72.81
1726;BME280;41776;48.260;8.928;2022-09-12T09:47:12;70719.94;;;-145.69;78.23
1726;BME280;41776;48.260;8.928;2022-09-12T09:49:38;70727.88;;;-145.69;76.78
1726;BME280;41776;48.260;8.928;2022-09-12T09:52:06;70715.94;;;-145.69;68.14
1726;BME280;41776;48.260;8.928;2022-09-12T09:54:36;70711.97;;;-145.69;70.61
1726;BME280;41776;48.260;8.928;2022-09-12T09:57:36;70704.00;;;-145.69;68.12
1726;BME280;41776;48.260;8.928;2022-09-12T10:00:20;70688.09;;;-145.69;64.39
1726;BME280;41776;48.260;8.928;2022-09-12T10:02:59;70682.13;;;-145.69;69.75
1726;BME280;41776;48.260;8.928;2022-09-12T10:05:27;70668.19;;;-145.69;76.74
1726;BME280;41776;48.260;8.928;2022-09-12T10:07:54;70652.28;;;-145.69;70.98
1726;BME280;41776;48.260;8.928;2022-09-12T10:10:20;70658.25;;;-145.69;66.53
1726;BME280;41776;48.260;8.928;2022-09-12T10:12:48;70658.25;;;-145.69;70.57
1726;BME280;41776;48.260;8.928;2022-09-12T10:15:17;70638.34;;;-145.69;66.78
1726;BME280;41776;48.260;8.928;2022-09-12T10:17:44;70618.47;;;-145.69;61.96
1726;BME280;41776;48.260;8.928;2022-09-12T10:20:32;70618.47;;;-145.69;64.07
1726;BME280;41776;48.260;8.928;2022-09-12T10:23:00;70614.47;;;-145.69;63.58
1726;BME280;41776;48.260;8.928;2022-09-12T10:25:27;70608.53;;;-145.69;59.44
1726;BME280;41776;48.260;8.928;2022-09-12T10:27:56;70582.66;;;-145.69;56.77
1726;BME280;41776;48.260;8.928;2022-09-12T10:30:24;70582.66;;;-145.69;57.30
1726;BME280;41776;48.260;8.928;2022-09-12T10:32:53;70590.63;;;-145.69;54.07
1726;BME280;41776;48.260;8.928;2022-09-12T10:35:23;70590.63;;;-145.69;52.13
1726;BME280;41776;48.260;8.928;2022-09-12T10:37:54;70604.53;;;-145.69;53.78
1726;BME280;41776;48.260;8.928;2022-09-12T10:40:23;70588.63;;;-145.69;58.97
1726;BME280;41776;48.260;8.928;2022-09-12T10:42:53;70564.75;;;-145.69;59.37
1726;BME280;41776;48.260;8.928;2022-09-12T10:45:23;70538.88;;;-145.69;57.20
1726;BME280;41776;48.260;8.928;2022-09-12T10:47:50;70552.81;;;-145.69;50.41
1726;BME280;41776;48.260;8.928;2022-09-12T10:50:35;70542.88;;;-145.69;49.15
1726;BME280;41776;48.260;8.928;2022-09-12T10:53:18;70509.03;;;-145.69;52.27
1726;BME280;41776;48.260;8.928;2022-09-12T10:55:58;70499.09;;;-145.69;54.41
1726;BME280;41776;48.260;8.928;2022-09-12T10:58:48;70483.19;;;-145.69;54.94
1726;BME280;41776;48.260;8.928;2022-09-12T11:01:29;70471.25;;;-145.69;58.98
1726;BME280;41776;48.260;8.928;2022-09-12T11:04:13;70467.28;;;-145.69;53.95
1726;BME280;41776;48.260;8.928;2022-09-12T11:06:47;70443.41;;;-145.69;56.88
1726;BME280;41776;48.260;8.928;2022-09-12T11:09:21;70467.28;;;-145.69;49.76
1726;BME280;41776;48.260;8.928;2022-09-12T11:12:04;70451.34;;;-145.69;52.06
1726;BME280;41776;48.260;8.928;2022-09-12T11:14:45;70439.41;;;-145.69;56.02
1726;BME280;41776;48.260;8.928;2022-09-12T11:17:26;70455.34;;;-145.69;44.35
1726;BME280;41776;48.260;8.928;2022-09-12T11:20:20;70449.38;;;-145.69;43.93
1726;BME280;41776;48.260;8.928;2022-09-12T11:23:21;70443.41;;;-145.69;46.61
1726;BME280;41776;48.260;8.928;2022-09-12T11:25:56;70443.41;;;-145.69;48.93
1726;BME280;41776;48.260;8.928;2022-09-12T11:28:31;70437.44;;;-145.69;53.38
1726;BME280;41776;48.260;8.928;2022-09-12T11:31:16;70435.44;;;-145.69;49.73
1726;BME280;41776;48.260;8.928;2022-09-12T11:33:46;70451.34;;;-145.69;53.61
1726;BME280;41776;48.260;8.928;2022-09-12T11:36:26;70471.25;;;-145.69;52.19
1726;BME280;41776;48.260;8.928;2022-09-12T11:39:01;70479.19;;;-145.69;50.41
1726;BME280;41776;48.260;8.928;2022-09-12T11:41:31;70463.28;;;-145.69;52.11
1726;BME280;41776;48.260;8.928;2022-09-12T11:44:03;70427.47;;;-145.69;58.16
1726;BME280;41776;48.260;8.928;2022-09-12T11:46:37;70423.50;;;-145.69;53.50
1726;BME280;41776;48.260;8.928;2022-09-12T11:49:12;70435.44;;;-145.69;53.61
1726;BME280;41776;48.260;8.928;2022-09-12T11:51:44;70429.47;;;-145.69;48.19
1726;BME280;41776;48.260;8.928;2022-09-12T11:54:21;70441.41;;;-145.69;47.27
1726;BME280;41776;48.260;8.928;2022-09-12T11:56:58;70413.56;;;-145.69;55.88
1726;BME280;41776;48.260;8.928;2022-09-12T11:59:34;70415.53;;;-145.69;50.85
1726;BME280;41776;48.260;8.928;2022-09-12T12:02:10;70401.63;;;-145.69;52.25
1726;BME280;41776;48.260;8.928;2022-09-12T12:04:41;70387.69;;;-145.69;53.29
1726;BME280;41776;48.260;8.928;2022-09-12T12:07:10;70395.66;;;-145.69;46.16
1726;BME280;41776;48.260;8.928;2022-09-12T12:09:44;70367.81;;;-145.69;50.59
1726;BME280;41776;48.260;8.928;2022-09-12T12:12:17;70373.78;;;-145.69;48.04
1726;BME280;41776;48.260;8.928;2022-09-12T12:14:47;70361.84;;;-145.69;45.66
1726;BME280;41776;48.260;8.928;2022-09-12T12:17:16;70353.88;;;-145.69;46.04
1726;BME280;41776;48.260;8.928;2022-09-12T12:19:44;70320.06;;;-145.69;46.31
1726;BME280;41776;48.260;8.928;2022-09-12T12:22:16;70324.03;;;-145.69;45.27
1726;BME280;41776;48.260;8.928;2022-09-12T12:24:58;70308.13;;;-145.69;49.47
1726;BME280;41776;48.260;8.928;2022-09-12T12:27:46;70306.13;;;-145.69;44.41
1726;BME280;41776;48.260;8.928;2022-09-12T12:33:51;70300.16;;;-145.69;43.82
1726;BME280;41776;48.260;8.928;2022-09-12T12:36:32;70272.31;;;-145.69;45.72
1726;BME280;41776;48.260;8.928;2022-09-12T12:49:16;70328.00;;;-145.69;45.75
1726;BME280;41776;48.260;8.928;2022-09-12T12:51:57;70306.13;;;-145.69;49.33
1726;BME280;41776;48.260;8.928;2022-09-12T12:54:53;70274.31;;;-145.69;47.86
1726;BME280;41776;48.260;8.928;2022-09-12T12:57:37;70252.41;;;-145.69;46.44
1726;BME280;41776;48.260;8.928;2022-09-12T13:00:21;70268.34;;;-145.69;45.74
1726;BME280;41776;48.260;8.928;2022-09-12T13:02:55;70268.34;;;-145.69;44.60
1726;BME280;41776;48.260;8.928;2022-09-12T13:05:26;70268.34;;;-145.69;45.01
1726;BME280;41776;48.260;8.928;2022-09-12T13:07:57;70224.56;;;-145.69;58.61
1726;BME280;41776;48.260;8.928;2022-09-12T13:10:27;70230.53;;;-145.69;45.16
1726;BME280;41776;48.260;8.928;2022-09-12T13:12:56;70192.75;;;-145.69;46.43
1726;BME280;41776;48.260;8.928;2022-09-12T13:15:45;70204.69;;;-145.69;44.01
1726;BME280;41776;48.260;8.928;2022-09-12T13:18:16;70204.69;;;-145.69;41.43
1726;BME280;41776;48.260;8.928;2022-09-12T13:20:47;70178.81;;;-145.69;41.11